LiveATC.Net - Listen to live air traffic control over the Internet!


ICAO: KEVV  IATA: EVV   Airport: Evansville Regional Airport
City: Evansville   State/Province: Indiana
Country: United States   Continent: North America
KEVV METAR Weather: KEVV 011054Z 23009KT 10SM FEW038 FEW120 23/17 A2994 RMK AO2 SLP135 T02280172
KEVV Flight Activity (FlightAware)
KEVV Webcam: (Airport Webcams)
KEVV Airport Info   (AirNav) (iFlightPlanner)
KEVV VFR Sectional Chart   (iFlightPlanner) 
KEVV IFR Low Chart   (iFlightPlanner) 
KEVV Twr/ZID
Feed Status: DOWN
Last heard on: 2016-06-25 04:16:03 (6 days 7 hours 23 minutes ago)
KEVV Twr/ZID Audio Archives
FacilityFrequency
Evansville Tower118.700
Evansville UNICOM122.950
ZID Indy Center (Evansville RCAG)128.300

Sponsored by: Tri-State Aero

NOTICE

Unauthorized use prohibited. See LiveATC.net Terms of Service


Find LiveATC Audio Streams


Airport/ARTCC Code

Frequency
(e.g., 124.400, 128.75)
Site-wide search

Browse LiveATC Feeds
LiveATC Coverage Map
Top 50 LiveATC Feeds
Bad Weather Areas

LiveATC FAQ
Offer a LiveATC Feed
Contact LiveATC.net
Press Inquiries

LiveATC on iPhone
LiveATC on Android

Windows Phone
Windows 8/10

LiveATC Mobile
(Mobile browser)

ATC Audio Archives
Interesting Recordings

LiveATC Forums


Home Page
About LiveATC.net
Make a Donation
LiveATC Store

Terms of Use
Privacy Policy

Canadian Air Freqs

AIRMETs/SIGMETs

FAA Airport Status
Nat'l Airspace Status
Arrival Demand Charts


Server Software By:
Icecast.org
Liquidsoap